North Spring Valley, Nevada Weather observations

Data are for 10 minute period ending at time listed.
 Day   Time   Solar   Ave.   Ave.  Ave.  Vector  Max.   Baro.   Total    
  of    of     Rad.   Air    Rel.  Wind   Wind   Wind  Press.  Precip.   
Year   Day            Temp.  Hum.  Speed  Dir.   Gust                    
2014   (PST)  Kw/m2    F      %     mph   deg.    mph    mb.     in.     
-------------------------------------------------------------------------
 209   13:20   0.21   70.9    60    4.2   162     7.0   834.0    0.00 
 209   13:30   0.28   72.3    55    2.0   209     4.6   833.8    0.00 
 209   13:40   0.33   74.2    48    2.1   166     6.6   833.6    0.00 
 209   13:50   0.30   75.3    44    1.7   223     4.2   833.4    0.00 
 209   14:00   0.34   75.0    44    2.3     7     4.0   833.2    0.00 
 209   14:10   0.40   75.8    43    3.6   360     6.8   833.1    0.00 
 209   14:20   0.58   76.7    42    2.6   350     4.5   833.1    0.00 
 209   14:30   0.54   77.6    39    3.0   293     5.0   832.9    0.00 
 209   14:40   0.37   77.4    41    5.1   157    11.1   832.8    0.00 
 209   14:50   0.27   76.4    44    8.3   151    11.8   832.7    0.00 
 209   15:00   0.23   75.7    46    7.2   162     9.8   832.6    0.00 
 209   15:10   0.28   75.5    46    6.1   165     8.6   832.4    0.00 
 209   15:20   0.53   76.0    45    5.2   146     8.6   832.3    0.00 
 209   15:30   0.49   77.4    41    3.0    95     5.7   832.3    0.00 
 209   15:40   0.45   77.3    41    2.7    29     6.6   832.3    0.00 
 209   15:50   0.72   78.6    39    4.9    42     9.2   832.2    0.00 
 209   16:00   0.70   78.8    37    4.9     3     9.2   832.3    0.00 
 209   16:10   0.15   77.9    38    2.6   300     5.4   832.4    0.00 
 209   16:20   0.13   76.5    40    3.2   329     8.2   832.4    0.00 
 209   16:30   0.13   76.5    41    2.9   316     5.2   832.2    0.00 
 209   16:40   0.11   76.3    40    5.8   306    15.6   832.1    0.00 
 209   16:50   0.12   75.6    40   10.0   294    16.8   832.0    0.00 
 209   17:00   0.12   75.7    39    8.8   289    18.7   832.0    0.00 
 209   17:10   0.10   75.1    39   10.7   280    17.6   832.0    0.00 
 209   17:20   0.10   74.8    39   11.6   279    20.2   831.9    0.00 
 209   17:30   0.08   74.6    39   12.6   272    25.6   831.9    0.00 
 209   17:40   0.09   74.1    40   11.7   274    19.6   831.9    0.00 
 209   17:50   0.10   74.2    39   11.5   277    23.3   831.9    0.00 
 209   18:00   0.10   74.4    38    9.7   275    15.4   832.0    0.00 
 209   18:10   0.09   74.6    37    8.3   286    15.9   832.1    0.00 
 209   18:20   0.08   74.6    36    9.1   278    19.2   832.1    0.00 
 209   18:30   0.05   74.2    36   10.7   274    17.5   832.2    0.00 
 209   18:40   0.03   74.1    36    9.5   278    14.7   832.2    0.00 
 209   18:50   0.01   74.1    36    8.4   281    15.6   832.2    0.00 
 209   19:00   0.00   74.2    35    9.6   272    16.2   832.2    0.00 
 209   19:10   0.00   73.1    43    6.5   177    12.7   832.4    0.00 
 209   19:20   0.00   71.3    52    7.1   172    12.7   832.6    0.00 
 209   19:30   0.00   70.3    56    6.2   151     9.4   832.6    0.00 
 209   19:40   0.00   68.2    65    6.2   144     8.7   832.9    0.00 
 209   19:50   0.00   67.1    69    5.4   154     8.3   833.1    0.00 
 209   20:00   0.00   66.4    73    6.0   146     9.7   833.3    0.00 
 209   20:10   0.00   65.0    81    5.5   151     7.5   833.4    0.00 
 209   20:20   0.00   64.2    83    3.2   162     5.4   833.6    0.00 
 209   20:30   0.00   64.2    83    3.1   194     5.8   833.6    0.00 
 209   20:40   0.00   64.4    80    4.7   231     6.9   833.6    0.00 
 209   20:50   0.00   65.1    76    5.6   217     7.8   833.6    0.00 
 209   21:00   0.00   66.4    70    4.9   202     7.2   833.5    0.00 
 209   21:10   0.00   66.9    68    3.1   176     6.2   833.5    0.00 
 209   21:20   0.00   66.7    68    1.9   179     3.1   833.5    0.00 
 209   21:30   0.00   66.7    69    1.8   231     2.8   833.5    0.00 
 209   21:40   0.00   65.4    74    3.4   310     5.2   833.4    0.00 
 209   21:50   0.00   65.3    76    3.5   312     4.0   833.3    0.00 
 209   22:00   0.00   65.6    74    2.2   346     3.6   833.3    0.00 
 209   22:10   0.00   65.0    76    2.2    31     3.7   833.3    0.00 
 209   22:20   0.00   63.7    80    2.1    31     3.4   833.3    0.00 
 209   22:30   0.00   62.9    82    2.7    56     4.2   833.3    0.00 
 209   22:40   0.00   62.4    83    0.9     1     2.6   833.4    0.00 
 209   22:50   0.00   62.6    82    3.7   277     5.3   833.5    0.00 
 209   23:00   0.00   64.1    77    3.1   262     5.8   833.6    0.00 
 209   23:10   0.00   64.7    75    2.4   245     3.5   833.5    0.00 
 209   23:20   0.00   65.2    72    0.8   266     1.4   833.5    0.00 
 209   23:30   0.00   65.4    72    1.3   210     1.6   833.4    0.00 
 209   23:40   0.00   65.7    71    1.5   214     2.0   833.3    0.00 
 209   23:50   0.00   65.6    71    1.7   259     2.1   833.3    0.00 
 210    0:00   0.00   65.0    72    1.7   292     2.1   833.1    0.00 
 210    0:10   0.00   64.5    73    1.4   302     2.0   833.1    0.00 
 210    0:20   0.00   64.6    72    2.2   323     3.2   833.1    0.00 
 210    0:30   0.00   63.5    71    4.0   308     4.9   833.0    0.00 
 210    0:40   0.00   62.6    70    4.5   305     5.2   833.0    0.00 
 210    0:50   0.00   62.1    70    3.8   315     5.0   833.0    0.00 
 210    1:00   0.00   62.0    69    4.7   297     5.6   833.0    0.00 
 210    1:10   0.00   62.8    67    4.4   295     5.1   832.9    0.00 
 210    1:20   0.00   63.6    64    3.6   291     4.3   832.9    0.00 
 210    1:30   0.00   61.6    68    4.5   259     5.0   832.9    0.00 
 210    1:40   0.00   61.4    68    4.6   258     5.0   832.7    0.00 
 210    1:50   0.00   61.5    67    3.8   295     5.0   832.7    0.00 
 210    2:00   0.00   59.5    73    1.4     0     2.8   832.7    0.00 
 210    2:10   0.00   61.0    68    1.5   293     2.6   832.8    0.00 
 210    2:20   0.00   62.3    66    0.3    46     1.8   832.9    0.00 
 210    2:30   0.00   60.9    70    0.9   319     2.3   833.0    0.00 
 210    2:40   0.00   60.7    71    2.4   232     4.6   833.0    0.00 
 210    2:50   0.00   61.3    70    3.3   228     4.5   832.9    0.00 
 210    3:00   0.00   61.2    71    2.8   210     3.5   832.9    0.00 
 210    3:10   0.00   62.3    68    2.6   178     3.1   833.0    0.00 
 210    3:20   0.00   61.5    69    1.5   170     3.1   833.0    0.00 
 210    3:30   0.00   60.3    72    0.3   218     2.1   833.0    0.00 
 210    3:40   0.00   59.8    73    0.6   322     1.7   833.0    0.00 
 210    3:50   0.00   59.3    75    0.2   332     1.1   833.1    0.00 
 210    4:00   0.00   59.6    74    1.1   296     2.5   833.1    0.00 
 210    4:10   0.00   60.6    72    1.7   266     2.3   833.1    0.00 
 210    4:20   0.00   61.0    70    1.5   284     2.0   833.1    0.00 
 210    4:30   0.00   60.5    72    0.9   266     1.7   833.1    0.00 
 210    4:40   0.00   61.2    70    1.6   129     2.5   833.1    0.00 
 210    4:50   0.01   61.4    74    1.6   133     3.5   833.1    0.00 
 210    5:00   0.02   59.9    77    2.7   152     3.7   833.2    0.00 
 210    5:10   0.04   59.5    80    2.8   189     3.9   833.2    0.00 
 210    5:20   0.07   60.7    80    2.3   170     3.8   833.3    0.00 
 210    5:30   0.07   61.4    78    0.8   135     1.9   833.3    0.00 
 210    5:40   0.05   61.4    78    0.6    44     1.5   833.3    0.00 
 210    5:50   0.07   60.5    82    0.8    19     1.8   833.3    0.00 
 210    6:00   0.07   60.8    82    0.0     0     0.0   833.4    0.00 
 210    6:10   0.08   61.5    80    0.2   180     1.0   833.4    0.00 
 210    6:20   0.10   62.6    77    1.3   140     2.3   833.5    0.00 
 210    6:30   0.13   63.0    77    1.7   104     2.9   833.5    0.00 
 210    6:40   0.14   63.3    76    1.6   122     2.5   833.6    0.00 
 210    6:50   0.16   64.5    73    1.4   146     3.0   833.6    0.00 
 210    7:00   0.17   65.6    71    1.4   161     2.4   833.6    0.00 
 210    7:10   0.16   66.0    70    1.9   132     2.7   833.7    0.00 
 210    7:20   0.16   66.4    67    2.4   138     3.9   833.7    0.00 
 210    7:30   0.20   67.0    65    1.3   152     3.1   833.7    0.00 
 210    7:40   0.27   68.3    60    1.0    80     2.4   833.7    0.00 
 210    7:50   0.28   68.3    58    1.7   356     4.1   833.6    0.00 
 210    8:00   0.23   68.1    58    2.8    23     4.8   833.7    0.00 
 210    8:10   0.17   67.8    60    3.7    20     6.5   833.8    0.00 
 210    8:20   0.13   67.7    61    3.4    24     5.1   833.8    0.00 
 210    8:30   0.13   67.6    61    3.4    19     4.9   833.8    0.00 
 210    8:40   0.14   67.7    60    4.1     8     6.1   833.9    0.00 
 210    8:50   0.14   67.8    60    4.6    20     7.1   833.9    0.00 
 210    9:00   0.21   68.3    60    5.4    17     7.7   833.9    0.00 
 210    9:10   0.20   68.7    59    5.4    17     7.6   833.9    0.00 
 210    9:20   0.16   68.5    60    6.2    20     9.9   833.9    0.00 
 210    9:30   0.16   68.0    62    6.7     9     9.1   833.9    0.00 
 210    9:40   0.21   68.1    63    6.1     3     9.0   833.9    0.00 
 210    9:50   0.23   68.5    61    5.7    17     8.6   833.9    0.00 
 210   10:00   0.22   68.7    61    4.9    16     7.0   833.9    0.00 
 210   10:10   0.21   68.8    59    3.6    30     6.9   833.9    0.00 
 210   10:20   0.21   69.2    58    2.7    49     4.7   833.8    0.00 
 210   10:30   0.22   69.4    56    2.0    13     4.6   833.7    0.00 
 210   10:40   0.28   70.4    55    0.5   301     2.0   833.7    0.00 
 210   10:50   0.50   72.2    52    1.4   136     3.9   833.5    0.00 
 210   11:00   0.99   73.2    50    2.7    92     5.6   833.3    0.00 
 210   11:10   0.64   74.1    47    3.1    69     6.3   833.1    0.00 
 210   11:20   0.56   73.0    48    1.8    88     5.8   833.0    0.00 
 210   11:30   0.28   73.0    47    3.8   125     7.5   833.0    0.00 
 210   11:40   0.25   72.4    48    1.6    77     4.7   833.0    0.00 
 210   11:50   0.24   72.3    48    1.7    54     4.2   832.9    0.00 
 210   12:00   0.37   73.1    47    2.0   108     5.1   832.7    0.00 
 210   12:10   0.51   73.8    48    7.3   164    10.6   832.6    0.00 
 210   12:20   0.47   74.1    48    4.2   183     8.1   832.5    0.00 
 210   12:30   0.34   73.8    47    5.2   161     8.2   832.4    0.00 
 210   12:40   0.35   73.8    46    4.7   159     9.3   832.3    0.00 
 210   12:50   0.49   74.6    46    4.3   160     9.5   832.3    0.00 
 210   13:00   1.06   76.3    44    5.4   134    10.2   832.1    0.00 
 210   13:10   0.92   76.7    41    5.8   158    12.5   832.0    0.00 

Return to North Spring Valley graphs page.


Western Regional Climate Center,wrcc@dri.edu